KTMB/TMB METAR and TAF weather

Enter ICAO airport designator
Station Type Date Time Source
KTMB METAR 2022/01/25 04:53 UTC NOAA

KTMB 250453Z AUTO 29003KT 10SM CLR 09/05 A3003 RMK AO2 SLP166 T00890050 401890078


Station Type Date Time Source
KTMB Decoded METAR 2022/01/25 04:53 UTC NOAA

KENDALL-TAMIAMI EXEC AIRPORT , FL, United States (KTMB) 25-39N 080-26W 2M
Jan 24, 2022 - 11:53 PM EST / 2022.01.25 0453 UTC
Wind: from the WNW (290 degrees) at 3 MPH (3 KT):0
Visibility: 10 mile(s):0
Sky conditions: clear
Temperature: 48.0 F (8.9 C)
Dew Point: 41.0 F (5.0 C)
Relative Humidity: 76%
Pressure (altimeter): 30.03 in. Hg (1016 hPa)
ob: KTMB 250453Z AUTO 29003KT 10SM CLR 09/05 A3003 RMK AO2 SLP166 T00890050 401890078
cycle: 5

Station Type Date Time Source
KTMB TAF 2022/01/25 03:42 UTC NOAA

TAF
AMD KTMB 250240Z 2503/2524 VRB03KT P6SM FEW030 SCT250
FM251700 12006KT P6SM SCT030 BKN050

Example: see airport list